Time;durP1;ratioP1;P1;durP2;ratioP2;P2;SDS_P1;SDS_P2;PMS_P1;PMS_P2;Temp;Humidity;BMP_temperature;BMP_pressure;BME280_temperature;BME280_humidity;BME280_pressure;Samples;Min_cycle;Max_cycle;Signal;HPM_P1;HPM_P2
2021/08/16 00:02:18;;;;;;;2.40;1.87;;;23.90;99.90;;;;;;4989780;28;20448;-77
2021/08/16 00:04:46;;;;;;;3.70;2.90;;;23.90;99.90;;;;;;4989634;28;20483;-76
2021/08/16 00:07:12;;;;;;;3.20;2.90;;;23.80;99.90;;;;;;5000819;28;20463;-75
2021/08/16 00:09:39;;;;;;;3.87;2.60;;;23.80;99.90;;;;;;5002912;28;20983;-75
2021/08/16 00:12:07;;;;;;;2.53;2.33;;;23.80;99.90;;;;;;5008610;28;20447;-75
2021/08/16 00:14:34;;;;;;;2.80;2.13;;;23.80;99.90;;;;;;5008403;28;20497;-75
2021/08/16 00:17:00;;;;;;;2.73;2.20;;;23.80;99.90;;;;;;4998737;28;20460;-75
2021/08/16 00:19:27;;;;;;;3.20;2.50;;;23.80;99.90;;;;;;4989226;28;20499;-75
2021/08/16 00:21:55;;;;;;;2.60;2.00;;;23.80;99.90;;;;;;4989001;28;20484;-75
2021/08/16 00:24:22;;;;;;;3.63;2.40;;;23.70;99.90;;;;;;4988965;28;20464;-76
2021/08/16 00:26:49;;;;;;;3.30;2.47;;;23.70;99.90;;;;;;4998309;28;20513;-75
2021/08/16 00:29:16;;;;;;;3.67;2.30;;;23.70;99.90;;;;;;5008234;28;20459;-75
2021/08/16 00:31:42;;;;;;;2.30;2.03;;;23.70;99.90;;;;;;5005816;28;21086;-75
2021/08/16 00:34:09;;;;;;;2.27;2.07;;;23.70;99.90;;;;;;4988929;28;20444;-75
2021/08/16 00:36:37;;;;;;;3.10;2.30;;;23.70;99.90;;;;;;4998491;28;20464;-76
2021/08/16 00:39:05;;;;;;;2.03;1.60;;;23.70;99.90;;;;;;5007354;28;20526;-75
2021/08/16 00:41:33;;;;;;;5.43;2.03;;;23.70;99.90;;;;;;5008305;28;20472;-76
2021/08/16 00:44:01;;;;;;;2.63;1.90;;;23.60;99.90;;;;;;5008708;28;20464;-75
2021/08/16 00:46:29;;;;;;;3.43;2.07;;;23.60;99.90;;;;;;5008246;28;20444;-75
2021/08/16 00:48:55;;;;;;;3.20;2.33;;;23.60;99.90;;;;;;5001152;28;20460;-76
2021/08/16 00:51:22;;;;;;;2.40;1.67;;;23.60;99.90;;;;;;5005313;28;20471;-75
2021/08/16 00:53:49;;;;;;;2.20;1.83;;;23.60;99.90;;;;;;4993095;28;20519;-75
2021/08/16 00:56:17;;;;;;;2.03;1.67;;;23.50;99.90;;;;;;4993180;28;20463;-75
2021/08/16 00:58:44;;;;;;;3.60;2.70;;;23.50;99.90;;;;;;5005773;28;20549;-75
2021/08/16 01:01:11;;;;;;;3.57;2.20;;;23.50;99.90;;;;;;5008339;28;20530;-76
2021/08/16 01:03:38;;;;;;;2.17;1.97;;;23.50;99.90;;;;;;5010383;28;20517;-74
2021/08/16 01:06:06;;;;;;;1.60;1.47;;;23.40;99.90;;;;;;5006812;28;20444;-75
2021/08/16 01:08:32;;;;;;;2.87;2.00;;;23.50;99.90;;;;;;5001910;28;20699;-75
2021/08/16 01:10:59;;;;;;;2.27;1.87;;;23.40;99.90;;;;;;5011933;28;20474;-75
2021/08/16 01:13:27;;;;;;;2.67;2.07;;;23.50;99.90;;;;;;5011700;28;20443;-75
2021/08/16 01:15:56;;;;;;;2.73;2.00;;;23.40;99.90;;;;;;5000387;28;20505;-75
2021/08/16 01:18:23;;;;;;;2.63;2.03;;;23.40;99.90;;;;;;5006613;28;20460;-75
2021/08/16 01:20:50;;;;;;;2.73;2.40;;;23.40;99.90;;;;;;5011396;28;20483;-75
2021/08/16 01:23:17;;;;;;;2.17;1.97;;;23.40;99.90;;;;;;5001974;28;20461;-75
2021/08/16 01:25:47;;;;;;;2.23;1.60;;;23.40;99.90;;;;;;4993794;28;20444;-75
2021/08/16 01:28:16;;;;;;;4.33;2.40;;;23.40;99.90;;;;;;5022298;28;22267;-75
2021/08/16 01:30:42;;;;;;;2.40;2.20;;;23.40;99.90;;;;;;5003513;28;20467;-76
2021/08/16 01:33:09;;;;;;;2.93;2.20;;;23.30;99.90;;;;;;5011010;28;20875;-76
2021/08/16 01:35:36;;;;;;;3.27;2.30;;;23.30;99.90;;;;;;5010521;28;20467;-76
2021/08/16 01:38:03;;;;;;;2.67;2.03;;;23.30;99.90;;;;;;5007003;28;20515;-76
2021/08/16 01:40:30;;;;;;;1.63;1.40;;;23.30;99.90;;;;;;4992032;28;20796;-75
2021/08/16 01:42:57;;;;;;;2.23;1.50;;;23.30;99.90;;;;;;4992186;28;21000;-75
2021/08/16 01:45:25;;;;;;;2.27;1.87;;;23.30;99.90;;;;;;5008100;28;20976;-75
2021/08/16 01:47:52;;;;;;;2.77;1.67;;;23.30;99.90;;;;;;5007458;28;20458;-76
2021/08/16 01:50:18;;;;;;;3.27;1.60;;;23.20;99.90;;;;;;5010050;28;20486;-75
2021/08/16 01:52:45;;;;;;;2.93;1.70;;;23.20;99.90;;;;;;5006256;28;20472;-75
2021/08/16 01:55:12;;;;;;;2.40;1.63;;;23.20;99.90;;;;;;4991622;28;20973;-75
2021/08/16 01:57:39;;;;;;;2.87;2.07;;;23.20;99.90;;;;;;4991620;28;20500;-76
2021/08/16 02:00:07;;;;;;;2.50;2.13;;;23.10;99.90;;;;;;5005742;28;20459;-76
2021/08/16 02:02:35;;;;;;;1.93;1.70;;;23.10;99.90;;;;;;5009076;28;20990;-76
2021/08/16 02:05:01;;;;;;;2.23;1.60;;;23.10;99.90;;;;;;5010632;28;21018;-76
2021/08/16 02:07:28;;;;;;;2.53;2.00;;;23.10;99.90;;;;;;5007918;28;20464;-75
2021/08/16 02:09:55;;;;;;;2.33;1.80;;;23.10;99.90;;;;;;5004252;28;20459;-75
2021/08/16 02:12:22;;;;;;;2.90;2.10;;;23.00;99.90;;;;;;5010629;28;20451;-75
2021/08/16 02:14:48;;;;;;;1.97;1.63;;;23.00;99.90;;;;;;5010335;28;20455;-76
2021/08/16 02:17:15;;;;;;;2.73;2.20;;;23.00;99.90;;;;;;4993974;28;20465;-76
2021/08/16 02:19:44;;;;;;;2.87;1.93;;;23.00;99.90;;;;;;5002353;28;20519;-76
2021/08/16 02:22:11;;;;;;;2.60;1.60;;;23.00;99.90;;;;;;5009247;28;20487;-76
2021/08/16 02:24:37;;;;;;;2.90;1.80;;;23.00;99.90;;;;;;5010402;28;20711;-76
2021/08/16 02:27:04;;;;;;;2.73;2.20;;;23.00;99.90;;;;;;5010558;28;20447;-75
2021/08/16 02:29:31;;;;;;;2.73;2.30;;;23.00;99.90;;;;;;5009674;28;20488;-75
2021/08/16 02:31:57;;;;;;;2.43;1.97;;;23.00;99.90;;;;;;4997156;28;20523;-74
2021/08/16 02:34:24;;;;;;;3.87;1.90;;;22.90;99.90;;;;;;5000681;28;20447;-74
2021/08/16 02:36:52;;;;;;;2.10;1.90;;;22.90;99.90;;;;;;5009956;28;20454;-74
2021/08/16 02:39:19;;;;;;;3.00;1.90;;;22.90;99.90;;;;;;5007171;28;20459;-74
2021/08/16 02:41:46;;;;;;;3.17;1.73;;;22.90;99.90;;;;;;5007801;28;20978;-74
2021/08/16 02:44:13;;;;;;;5.43;2.10;;;22.90;99.90;;;;;;5007978;28;21034;-74
2021/08/16 02:46:39;;;;;;;4.30;2.00;;;22.80;99.90;;;;;;5009586;28;20255;-75
2021/08/16 02:49:06;;;;;;;2.70;1.60;;;22.80;99.90;;;;;;5008558;28;20462;-74
2021/08/16 02:51:33;;;;;;;3.73;1.83;;;22.80;99.90;;;;;;5009908;28;20467;-74
2021/08/16 02:54:01;;;;;;;3.83;1.90;;;22.70;99.90;;;;;;4994350;28;20460;-74
2021/08/16 02:56:28;;;;;;;5.20;1.80;;;22.70;99.90;;;;;;4995697;28;20514;-74
2021/08/16 02:58:54;;;;;;;4.40;2.33;;;22.70;99.90;;;;;;5009574;28;20498;-74
2021/08/16 03:01:21;;;;;;;2.00;1.80;;;22.70;99.90;;;;;;5001915;28;20530;-75
2021/08/16 03:03:48;;;;;;;1.83;1.70;;;22.70;99.90;;;;;;5001698;28;20483;-74
2021/08/16 03:06:15;;;;;;;3.93;2.10;;;22.60;99.90;;;;;;5009993;28;20533;-75
2021/08/16 03:08:42;;;;;;;3.80;2.10;;;22.60;99.90;;;;;;4999855;28;20456;-74
2021/08/16 03:11:10;;;;;;;2.65;1.80;;;22.60;99.90;;;;;;5009778;28;20452;-76
2021/08/16 03:13:37;;;;;;;3.53;1.75;;;22.60;99.90;;;;;;5009376;28;20248;-74
2021/08/16 03:16:03;;;;;;;2.17;1.98;;;22.60;99.90;;;;;;5007807;28;20271;-74
2021/08/16 03:18:31;;;;;;;2.50;1.85;;;22.60;99.90;;;;;;5009045;28;20193;-75
2021/08/16 03:20:58;;;;;;;2.67;1.70;;;22.60;99.90;;;;;;5009019;28;20581;-75
2021/08/16 03:23:24;;;;;;;4.45;2.15;;;22.60;99.90;;;;;;5008250;28;20518;-76
2021/08/16 03:25:51;;;;;;;8.40;2.30;;;22.60;99.90;;;;;;5008995;28;20569;-75
2021/08/16 03:28:19;;;;;;;4.03;2.20;;;22.60;99.90;;;;;;5008319;28;20498;-75
2021/08/16 03:30:48;;;;;;;5.40;1.90;;;22.50;99.90;;;;;;5007477;28;20460;-75
2021/08/16 03:33:14;;;;;;;4.32;2.20;;;22.50;99.90;;;;;;5003301;28;20228;-75
2021/08/16 03:35:42;;;;;;;3.77;2.40;;;22.50;99.90;;;;;;5009078;28;20657;-75
2021/08/16 03:38:09;;;;;;;3.93;2.60;;;22.50;99.90;;;;;;5000822;28;20477;-75
2021/08/16 03:40:36;;;;;;;8.23;2.95;;;22.50;99.90;;;;;;5004096;28;20460;-75
2021/08/16 03:43:02;;;;;;;4.57;3.10;;;22.50;99.90;;;;;;5009290;28;20278;-75
2021/08/16 03:45:31;;;;;;;7.88;2.47;;;22.50;99.90;;;;;;5006571;28;20199;-76
2021/08/16 03:47:57;;;;;;;5.57;2.38;;;22.40;99.90;;;;;;4989703;28;20197;-75
2021/08/16 03:50:24;;;;;;;3.67;2.90;;;22.40;99.90;;;;;;5005538;28;20189;-75
2021/08/16 03:52:51;;;;;;;6.63;3.50;;;22.40;99.90;;;;;;5003874;28;20252;-75
2021/08/16 03:55:17;;;;;;;2.88;2.55;;;22.40;99.90;;;;;;5008962;28;20620;-76
2021/08/16 03:57:44;;;;;;;4.88;3.20;;;22.40;99.90;;;;;;5007197;28;20612;-77
2021/08/16 04:00:13;;;;;;;3.20;2.80;;;22.40;99.90;;;;;;5005872;28;20197;-77
2021/08/16 04:02:42;;;;;;;6.53;3.67;;;22.40;99.90;;;;;;4997692;28;20989;-77
2021/08/16 04:05:10;;;;;;;7.95;4.15;;;22.30;99.90;;;;;;5009043;28;20228;-76
2021/08/16 04:07:37;;;;;;;4.75;3.55;;;22.30;99.90;;;;;;5002020;28;20578;-77
2021/08/16 04:10:04;;;;;;;4.53;3.78;;;22.30;99.90;;;;;;5008002;28;20254;-77
2021/08/16 04:12:30;;;;;;;5.05;3.70;;;22.30;99.90;;;;;;5007465;28;20197;-77
2021/08/16 04:14:57;;;;;;;3.78;3.15;;;22.30;99.90;;;;;;5008992;28;20201;-76
2021/08/16 04:17:24;;;;;;;4.22;3.03;;;22.30;99.90;;;;;;5005067;28;20201;-76
2021/08/16 04:19:52;;;;;;;3.80;2.95;;;22.30;99.90;;;;;;5007940;28;20250;-75
2021/08/16 04:22:18;;;;;;;5.15;4.22;;;22.20;99.90;;;;;;5007578;28;20220;-76
2021/08/16 04:24:45;;;;;;;3.55;3.25;;;22.20;99.90;;;;;;4999573;28;20275;-76
2021/08/16 04:27:12;;;;;;;4.55;3.40;;;22.20;99.90;;;;;;5008478;28;20244;-76
2021/08/16 04:29:38;;;;;;;4.53;3.38;;;22.20;99.90;;;;;;5008699;28;20586;-76
2021/08/16 04:32:05;;;;;;;5.88;3.28;;;22.20;99.90;;;;;;5007623;28;20616;-76
2021/08/16 04:34:32;;;;;;;4.47;3.33;;;22.10;99.90;;;;;;5006837;28;20199;-76
2021/08/16 04:37:00;;;;;;;5.33;3.60;;;22.10;99.90;;;;;;5009659;28;20443;-76
2021/08/16 04:39:27;;;;;;;5.22;4.13;;;22.10;99.90;;;;;;5010918;28;20467;-76
2021/08/16 04:41:54;;;;;;;5.13;3.55;;;22.10;99.90;;;;;;5012341;28;20235;-76
2021/08/16 04:44:20;;;;;;;4.75;3.65;;;22.10;99.90;;;;;;5010898;28;20284;-76
2021/08/16 04:46:47;;;;;;;5.93;4.00;;;22.00;99.90;;;;;;5017090;28;20734;-75
2021/08/16 04:49:14;;;;;;;8.20;4.07;;;22.00;99.90;;;;;;5012193;28;20196;-75
2021/08/16 04:51:40;;;;;;;4.57;3.13;;;22.00;99.90;;;;;;5012799;28;20492;-76
2021/08/16 04:54:08;;;;;;;5.97;3.70;;;22.00;99.90;;;;;;4999481;28;20199;-76
2021/08/16 04:56:35;;;;;;;4.65;3.17;;;22.00;99.90;;;;;;5012869;28;20254;-76
2021/08/16 04:59:02;;;;;;;8.40;3.28;;;22.00;99.90;;;;;;5012450;28;20253;-76
2021/08/16 05:01:29;;;;;;;8.50;3.47;;;22.00;99.90;;;;;;5006147;28;20208;-76
2021/08/16 05:03:56;;;;;;;4.75;3.00;;;21.90;99.90;;;;;;4992749;28;20229;-76
2021/08/16 05:06:29;;;;;;;3.53;3.20;;;22.00;99.90;;;;;;5008868;28;20220;-76
2021/08/16 05:08:55;;;;;;;5.38;4.00;;;21.90;99.90;;;;;;5008909;28;20529;-76
2021/08/16 05:11:23;;;;;;;4.50;3.20;;;21.90;99.90;;;;;;5011840;28;20200;-76
2021/08/16 05:13:50;;;;;;;5.20;3.50;;;21.90;99.90;;;;;;5012139;28;20204;-76
2021/08/16 05:16:18;;;;;;;6.43;4.15;;;21.80;99.90;;;;;;5011536;28;20267;-76
2021/08/16 05:18:45;;;;;;;3.88;3.20;;;21.90;99.90;;;;;;5009823;28;20197;-76
2021/08/16 05:21:12;;;;;;;5.70;3.47;;;21.90;99.90;;;;;;5012117;28;20204;-76
2021/08/16 05:23:39;;;;;;;8.57;4.05;;;21.90;99.90;;;;;;5007424;28;20252;-75
2021/08/16 05:26:05;;;;;;;5.82;3.80;;;21.80;99.90;;;;;;5009704;28;20208;-75
2021/08/16 05:28:33;;;;;;;5.43;3.50;;;21.80;99.90;;;;;;5010793;28;20205;-76
2021/08/16 05:31:00;;;;;;;5.45;3.50;;;21.80;99.90;;;;;;5011318;28;20255;-75
2021/08/16 05:33:27;;;;;;;4.78;3.17;;;21.80;99.90;;;;;;5000563;28;20206;-75
2021/08/16 05:35:53;;;;;;;4.53;3.65;;;21.80;99.90;;;;;;5006131;28;20613;-75
2021/08/16 05:38:20;;;;;;;6.53;4.15;;;21.80;99.90;;;;;;5004500;28;20251;-76
2021/08/16 05:40:47;;;;;;;6.70;4.30;;;21.60;99.90;;;;;;5011429;28;20558;-76
2021/08/16 05:43:13;;;;;;;6.38;4.20;;;21.80;99.90;;;;;;5011169;28;20224;-75
2021/08/16 05:45:41;;;;;;;4.40;3.67;;;21.80;99.90;;;;;;5010365;28;20572;-75
2021/08/16 05:48:08;;;;;;;4.07;3.17;;;21.60;99.90;;;;;;5010539;28;20263;-75
2021/08/16 05:50:35;;;;;;;5.20;3.78;;;21.70;99.90;;;;;;5011311;28;20532;-76
2021/08/16 05:53:02;;;;;;;5.35;4.05;;;21.70;99.90;;;;;;5004670;28;20205;-76
2021/08/16 05:55:28;;;;;;;6.85;3.85;;;21.80;99.90;;;;;;5002079;28;20840;-75
2021/08/16 05:57:55;;;;;;;4.82;4.32;;;21.70;99.90;;;;;;5011262;28;20200;-76
2021/08/16 06:00:22;;;;;;;8.98;4.75;;;21.70;99.90;;;;;;5010613;28;20196;-76
2021/08/16 06:02:50;;;;;;;6.55;4.55;;;21.70;99.90;;;;;;5009721;28;20224;-76
2021/08/16 06:05:16;;;;;;;6.50;4.65;;;21.70;99.90;;;;;;5010005;28;20641;-76
2021/08/16 06:07:43;;;;;;;7.65;3.92;;;21.50;99.90;;;;;;5008344;28;20185;-76
2021/08/16 06:10:11;;;;;;;7.05;5.80;;;21.70;99.90;;;;;;5010556;28;20223;-77
2021/08/16 06:12:38;;;;;;;5.53;4.47;;;21.60;99.90;;;;;;5011246;28;20205;-76
2021/08/16 06:15:05;;;;;;;6.00;4.10;;;21.60;99.90;;;;;;5009912;28;20213;-77
2021/08/16 06:17:36;;;;;;;7.57;4.53;;;21.60;99.90;;;;;;4999932;28;20193;-76
2021/08/16 06:20:05;;;;;;;7.45;4.40;;;21.60;99.90;;;;;;4993973;28;20366;-76
2021/08/16 06:22:33;;;;;;;6.85;4.00;;;21.60;99.90;;;;;;5007579;28;20213;-76
2021/08/16 06:25:00;;;;;;;7.57;4.53;;;21.60;99.90;;;;;;5000965;28;20255;-76
2021/08/16 06:27:27;;;;;;;4.32;4.00;;;21.60;99.90;;;;;;5010454;28;20188;-77
2021/08/16 06:29:54;;;;;;;4.82;4.32;;;21.60;99.90;;;;;;5010761;28;20197;-77
2021/08/16 06:32:20;;;;;;;5.30;4.22;;;21.60;99.90;;;;;;4999309;28;20927;-77
2021/08/16 06:34:48;;;;;;;6.05;4.07;;;21.60;99.90;;;;;;4993731;28;20251;-76
2021/08/16 06:37:16;;;;;;;4.35;3.95;;;21.60;99.90;;;;;;5008465;28;20635;-76
2021/08/16 06:39:43;;;;;;;6.03;3.70;;;21.50;99.90;;;;;;5005709;28;20193;-75
2021/08/16 06:42:11;;;;;;;6.85;3.78;;;21.50;99.90;;;;;;5009572;28;20224;-76
2021/08/16 06:44:37;;;;;;;5.57;4.45;;;21.50;99.90;;;;;;5009074;28;20267;-76
2021/08/16 06:47:05;;;;;;;4.65;4.15;;;21.50;99.90;;;;;;5007502;28;20597;-75
2021/08/16 06:49:31;;;;;;;5.10;4.18;;;21.50;99.90;;;;;;5009650;28;20297;-76
2021/08/16 06:51:58;;;;;;;8.10;5.03;;;21.50;99.90;;;;;;5007570;28;20220;-76
2021/08/16 06:54:26;;;;;;;5.78;4.28;;;21.50;99.90;;;;;;4987799;28;20201;-76
2021/08/16 06:56:53;;;;;;;7.82;4.50;;;21.50;99.90;;;;;;5008735;28;20212;-76
2021/08/16 06:59:19;;;;;;;6.75;4.30;;;21.50;99.90;;;;;;5008643;28;20246;-75
2021/08/16 07:01:46;;;;;;;5.53;3.95;;;21.40;99.90;;;;;;5001759;28;20253;-75
2021/08/16 07:04:13;;;;;;;7.78;4.57;;;21.50;99.90;;;;;;5008618;28;20271;-75
2021/08/16 07:06:40;;;;;;;5.35;4.85;;;21.50;99.90;;;;;;5008572;28;20201;-75
2021/08/16 07:09:06;;;;;;;4.57;3.78;;;21.50;99.90;;;;;;5008320;28;20197;-75
2021/08/16 07:11:34;;;;;;;5.70;3.90;;;21.50;99.90;;;;;;5009837;28;20197;-76
2021/08/16 07:14:01;;;;;;;7.57;4.30;;;21.50;99.90;;;;;;5001724;28;20275;-75
2021/08/16 07:16:28;;;;;;;6.35;5.07;;;21.50;99.90;;;;;;5009032;28;20270;-74
2021/08/16 07:18:54;;;;;;;7.57;4.80;;;21.50;99.90;;;;;;5009097;28;20574;-74
2021/08/16 07:21:21;;;;;;;5.95;4.00;;;21.50;99.90;;;;;;5009750;28;20621;-75
2021/08/16 07:23:48;;;;;;;7.05;4.07;;;21.40;99.90;;;;;;4995980;28;20233;-76
2021/08/16 07:26:14;;;;;;;6.05;5.05;;;21.50;99.90;;;;;;5003423;28;20213;-75
2021/08/16 07:28:45;;;;;;;4.82;4.43;;;21.50;99.90;;;;;;5008595;28;20231;-75
2021/08/16 07:31:12;;;;;;;4.32;3.80;;;21.50;99.90;;;;;;5009512;28;20233;-75
2021/08/16 07:33:39;;;;;;;9.55;5.53;;;21.50;99.90;;;;;;5008201;28;20204;-78
2021/08/16 07:36:06;;;;;;;6.38;5.78;;;21.50;99.90;;;;;;4998794;28;20563;-75
2021/08/16 07:38:32;;;;;;;6.25;5.65;;;21.50;99.90;;;;;;5001001;28;20204;-75
2021/08/16 07:40:59;;;;;;;6.18;4.80;;;21.80;99.90;;;;;;5005964;28;20197;-75
2021/08/16 07:43:26;;;;;;;5.30;4.68;;;21.50;99.90;;;;;;4998967;28;20283;-75
2021/08/16 07:45:54;;;;;;;6.35;5.22;;;21.60;99.90;;;;;;5001239;28;20197;-76
2021/08/16 07:48:20;;;;;;;6.68;5.15;;;21.50;99.90;;;;;;5000997;28;20193;-75
2021/08/16 07:50:47;;;;;;;7.20;5.40;;;21.50;99.90;;;;;;5002022;28;20201;-75
2021/08/16 07:53:14;;;;;;;8.02;5.10;;;21.50;99.90;;;;;;5006959;28;20201;-75
2021/08/16 07:55:41;;;;;;;8.90;5.30;;;21.60;99.90;;;;;;5008606;28;20280;-75
2021/08/16 07:58:07;;;;;;;6.63;4.85;;;21.70;99.90;;;;;;5008586;28;20205;-75
2021/08/16 08:00:34;;;;;;;8.77;5.65;;;21.60;99.90;;;;;;5003437;28;20201;-76
2021/08/16 08:03:02;;;;;;;6.00;4.53;;;21.60;99.90;;;;;;5001686;28;20577;-76
2021/08/16 08:05:29;;;;;;;8.02;4.80;;;21.60;99.90;;;;;;5004983;28;20205;-76
2021/08/16 08:07:56;;;;;;;6.80;5.05;;;21.60;99.90;;;;;;5004601;28;20205;-76
2021/08/16 08:10:23;;;;;;;6.70;5.53;;;21.60;99.90;;;;;;5006015;28;20194;-76
2021/08/16 08:12:50;;;;;;;12.13;4.72;;;21.90;99.90;;;;;;5008982;28;20197;-76
2021/08/16 08:15:18;;;;;;;6.63;4.45;;;21.70;99.90;;;;;;5008698;28;20211;-76
2021/08/16 08:17:47;;;;;;;3.92;3.58;;;21.80;99.90;;;;;;4996173;28;20198;-76
2021/08/16 08:20:15;;;;;;;5.45;4.10;;;21.80;99.90;;;;;;5008363;28;20197;-76
2021/08/16 08:22:42;;;;;;;5.97;4.20;;;21.80;99.90;;;;;;5003637;28;20279;-76
2021/08/16 08:25:09;;;;;;;7.18;4.60;;;21.80;99.90;;;;;;4988890;28;20456;-75
2021/08/16 08:27:36;;;;;;;5.75;4.03;;;21.80;99.90;;;;;;5001321;28;20201;-75
2021/08/16 08:30:03;;;;;;;5.13;3.47;;;21.80;99.90;;;;;;5006080;28;20677;-75
2021/08/16 08:32:30;;;;;;;8.77;4.40;;;21.80;99.90;;;;;;4994168;28;20197;-75
2021/08/16 08:34:56;;;;;;;6.50;4.20;;;21.80;99.90;;;;;;5004544;28;20200;-75
2021/08/16 08:37:25;;;;;;;9.85;4.38;;;21.80;99.90;;;;;;5000913;28;20193;-75
2021/08/16 08:39:51;;;;;;;5.25;4.20;;;21.80;99.90;;;;;;5002184;28;20208;-75
2021/08/16 08:42:18;;;;;;;7.07;3.90;;;21.80;99.90;;;;;;5006748;28;20211;-75
2021/08/16 08:44:45;;;;;;;5.00;4.40;;;21.80;99.90;;;;;;5006978;28;20220;-75
2021/08/16 08:47:12;;;;;;;4.45;4.05;;;21.80;99.90;;;;;;4999705;28;20201;-75
2021/08/16 08:49:40;;;;;;;8.13;4.43;;;21.60;99.90;;;;;;5007755;28;20193;-75
2021/08/16 08:52:07;;;;;;;4.82;3.90;;;21.80;99.90;;;;;;4995895;28;20204;-75
2021/08/16 08:54:36;;;;;;;5.80;3.63;;;21.80;99.90;;;;;;4998260;28;20666;-75
2021/08/16 08:57:04;;;;;;;7.22;4.45;;;21.80;99.90;;;;;;5000402;28;20283;-75
2021/08/16 08:59:30;;;;;;;10.25;4.40;;;21.90;99.90;;;;;;5002697;28;20731;-76
2021/08/16 09:01:59;;;;;;;8.35;3.72;;;21.90;99.90;;;;;;5008728;28;20197;-76
2021/08/16 09:04:26;;;;;;;6.05;4.57;;;21.80;99.90;;;;;;5006652;28;20581;-76
2021/08/16 09:06:52;;;;;;;6.22;3.97;;;21.80;99.90;;;;;;5000615;28;20197;-76
2021/08/16 09:09:19;;;;;;;5.72;3.70;;;21.80;99.90;;;;;;5004785;28;20189;-76
2021/08/16 09:11:50;;;;;;;7.55;3.85;;;21.80;99.90;;;;;;5001051;28;20209;-76
2021/08/16 09:14:18;;;;;;;5.10;4.65;;;21.80;99.90;;;;;;5005305;28;20212;-76
2021/08/16 09:16:47;;;;;;;9.95;4.00;;;21.80;99.90;;;;;;5006472;28;20692;-76
2021/08/16 09:19:15;;;;;;;9.73;3.40;;;21.90;99.90;;;;;;5008037;28;20188;-75
2021/08/16 09:21:44;;;;;;;3.88;3.15;;;22.10;99.90;;;;;;5007932;28;20240;-76
2021/08/16 09:24:10;;;;;;;6.13;3.65;;;21.90;99.90;;;;;;5009155;28;20585;-75
2021/08/16 09:26:39;;;;;;;4.93;3.97;;;21.90;99.90;;;;;;5005335;28;20205;-76
2021/08/16 09:29:12;;;;;;;4.65;4.07;;;21.90;99.90;;;;;;5010923;28;20200;-76
2021/08/16 09:31:50;;;;;;;5.07;3.45;;;21.90;99.90;;;;;;5011964;28;20199;-75
2021/08/16 09:34:31;;;;;;;4.57;3.85;;;21.90;99.90;;;;;;5009452;28;20201;-76
2021/08/16 09:37:01;;;;;;;4.63;4.20;;;21.90;99.90;;;;;;5011406;28;20231;-76
2021/08/16 09:39:30;;;;;;;6.78;3.75;;;22.00;99.90;;;;;;5004881;28;20292;-76
2021/08/16 09:41:58;;;;;;;8.90;3.45;;;22.00;99.90;;;;;;5010722;28;20677;-76
2021/08/16 09:44:26;;;;;;;3.80;3.50;;;22.00;99.90;;;;;;5010477;28;20303;-76
2021/08/16 09:47:01;;;;;;;6.63;3.80;;;22.00;99.90;;;;;;5009954;28;20220;-76
2021/08/16 09:49:28;;;;;;;6.95;3.53;;;22.00;99.90;;;;;;5011179;28;20624;-75
2021/08/16 09:52:03;;;;;;;4.25;3.55;;;22.00;99.90;;;;;;5011129;28;20196;-76
2021/08/16 09:54:31;;;;;;;7.93;4.20;;;22.00;99.90;;;;;;4999219;28;20192;-76
2021/08/16 09:56:59;;;;;;;6.78;3.60;;;22.00;99.90;;;;;;5010054;28;20577;-75
2021/08/16 09:59:28;;;;;;;5.95;3.72;;;22.00;99.90;;;;;;5009872;28;20204;-76
2021/08/16 10:01:55;;;;;;;3.77;3.30;;;22.00;99.90;;;;;;5006124;28;20700;-75
2021/08/16 10:04:22;;;;;;;5.20;3.80;;;22.00;99.90;;;;;;5008339;28;20852;-79
2021/08/16 10:06:50;;;;;;;4.75;3.00;;;22.00;99.90;;;;;;5012741;28;20224;-75
2021/08/16 10:09:20;;;;;;;6.75;4.30;;;22.00;99.90;;;;;;5001249;28;20201;-76
2021/08/16 10:11:48;;;;;;;4.75;3.78;;;22.10;99.90;;;;;;5013336;28;20199;-77
2021/08/16 10:14:15;;;;;;;5.10;3.75;;;22.10;99.90;;;;;;5012453;28;20657;-77
2021/08/16 10:16:47;;;;;;;5.60;4.72;;;22.10;99.90;;;;;;5012659;28;20205;-77
2021/08/16 10:19:18;;;;;;;4.43;4.00;;;22.10;99.90;;;;;;5005542;28;20189;-76
2021/08/16 10:21:45;;;;;;;7.45;3.15;;;22.00;99.90;;;;;;5012800;28;20661;-77
2021/08/16 10:24:20;;;;;;;5.35;3.92;;;22.00;99.90;;;;;;5003014;28;20574;-76
2021/08/16 10:26:58;;;;;;;5.13;4.10;;;22.00;99.90;;;;;;5010817;28;20215;-76
2021/08/16 10:29:25;;;;;;;3.65;3.33;;;22.00;99.90;;;;;;5012084;28;20463;-77
2021/08/16 10:31:54;;;;;;;7.63;4.03;;;22.00;99.90;;;;;;4997373;28;20201;-78
2021/08/16 10:34:28;;;;;;;4.85;3.78;;;21.90;99.90;;;;;;5002286;28;20560;-78
2021/08/16 10:36:57;;;;;;;4.50;3.75;;;21.90;99.90;;;;;;5012744;28;20196;-77
2021/08/16 10:39:34;;;;;;;9.88;3.78;;;22.00;99.90;;;;;;5012325;28;20201;-77
2021/08/16 10:42:11;;;;;;;3.88;3.00;;;21.90;99.90;;;;;;4997833;28;20676;-77
2021/08/16 10:44:40;;;;;;;5.28;3.30;;;22.00;99.90;;;;;;4998508;28;20240;-77
2021/08/16 10:47:08;;;;;;;4.90;3.35;;;22.00;99.90;;;;;;5007700;28;20193;-77
2021/08/16 10:49:36;;;;;;;4.13;3.05;;;22.00;99.90;;;;;;5012593;28;20220;-76
2021/08/16 10:52:04;;;;;;;3.55;3.15;;;21.90;99.90;;;;;;5003602;28;20208;-76
2021/08/16 10:54:33;;;;;;;3.05;2.80;;;21.90;99.90;;;;;;5007094;28;20203;-77
2021/08/16 10:57:00;;;;;;;4.60;2.80;;;21.90;99.90;;;;;;4998538;28;20212;-77
2021/08/16 10:59:28;;;;;;;2.95;2.42;;;21.90;99.90;;;;;;4992432;28;20202;-78
2021/08/16 11:01:57;;;;;;;3.60;3.13;;;21.90;99.90;;;;;;4995174;28;20196;-77
2021/08/16 11:04:29;;;;;;;2.58;2.38;;;21.90;99.90;;;;;;5001227;28;20220;-75
2021/08/16 11:06:59;;;;;;;3.13;2.83;;;21.90;99.90;;;;;;5001778;28;20228;-75
2021/08/16 11:09:27;;;;;;;2.78;2.58;;;21.90;99.90;;;;;;5008502;28;20192;-76
2021/08/16 11:12:00;;;;;;;3.10;2.80;;;21.90;99.90;;;;;;5013430;28;20688;-77
2021/08/16 11:14:27;;;;;;;3.05;2.50;;;21.90;99.90;;;;;;5010924;28;20201;-76
2021/08/16 11:16:55;;;;;;;2.85;2.65;;;21.90;99.90;;;;;;5005914;28;20189;-76
2021/08/16 11:19:23;;;;;;;2.60;2.20;;;21.90;99.90;;;;;;5004610;28;20188;-75
2021/08/16 11:21:55;;;;;;;2.55;1.90;;;21.80;99.90;;;;;;5009474;28;20208;-76
2021/08/16 11:24:30;;;;;;;3.00;2.28;;;21.90;99.90;;;;;;5003378;28;20240;-76
2021/08/16 11:26:57;;;;;;;3.78;2.20;;;21.80;99.90;;;;;;5007759;28;20236;-75
2021/08/16 11:29:26;;;;;;;1.60;1.50;;;21.90;99.90;;;;;;5009595;28;20570;-75
2021/08/16 11:31:58;;;;;;;4.25;2.15;;;21.80;99.90;;;;;;4999911;28;20254;-76
2021/08/16 11:34:25;;;;;;;1.92;1.73;;;21.90;99.90;;;;;;5011901;28;20338;-76
2021/08/16 11:36:52;;;;;;;2.20;2.00;;;21.80;99.90;;;;;;5010691;28;20231;-75
2021/08/16 11:39:28;;;;;;;2.20;1.90;;;21.80;99.90;;;;;;5000979;28;20204;-75
2021/08/16 11:41:57;;;;;;;2.13;1.92;;;21.80;99.90;;;;;;5010730;28;20585;-75
2021/08/16 11:44:24;;;;;;;2.30;2.05;;;21.80;99.90;;;;;;5011424;28;20240;-74
2021/08/16 11:46:52;;;;;;;3.97;1.90;;;21.80;99.90;;;;;;5009611;28;20566;-74
2021/08/16 11:49:19;;;;;;;3.95;2.53;;;21.80;99.90;;;;;;4994899;28;20195;-75
2021/08/16 11:51:46;;;;;;;2.60;2.13;;;21.80;99.90;;;;;;5005699;28;20229;-74
2021/08/16 11:54:26;;;;;;;5.37;2.00;;;21.80;99.90;;;;;;5000930;28;20201;-74
2021/08/16 11:56:54;;;;;;;3.13;1.60;;;21.80;99.90;;;;;;5008923;28;20937;-74
2021/08/16 11:59:21;;;;;;;3.28;1.90;;;21.80;99.90;;;;;;5011262;28;20200;-74
2021/08/16 12:01:48;;;;;;;1.88;1.77;;;21.80;99.90;;;;;;4997778;28;20206;-74
2021/08/16 12:04:15;;;;;;;3.35;2.00;;;21.70;99.90;;;;;;5006187;28;20224;-73
2021/08/16 12:06:42;;;;;;;1.45;1.35;;;21.70;99.90;;;;;;5011277;28;20201;-74
2021/08/16 12:09:10;;;;;;;2.05;1.85;;;21.70;99.90;;;;;;4994995;28;20193;-74
2021/08/16 12:11:39;;;;;;;2.17;1.52;;;21.70;99.90;;;;;;4990519;28;20217;-74
2021/08/16 12:14:06;;;;;;;2.03;1.83;;;21.60;99.90;;;;;;4996627;28;20287;-73
2021/08/16 12:16:34;;;;;;;2.00;1.65;;;21.60;99.90;;;;;;5007370;28;20541;-74
2021/08/16 12:19:03;;;;;;;2.47;1.92;;;21.50;99.90;;;;;;4996175;28;20669;-74
2021/08/16 12:21:29;;;;;;;3.25;1.83;;;21.50;99.90;;;;;;5010376;28;20223;-73
2021/08/16 12:23:58;;;;;;;2.33;2.13;;;21.50;99.90;;;;;;5008903;28;20221;-74
2021/08/16 12:26:29;;;;;;;1.73;1.60;;;21.50;99.90;;;;;;5010980;28;20197;-74
2021/08/16 12:28:57;;;;;;;3.88;2.20;;;21.50;99.90;;;;;;5002033;28;20194;-73
2021/08/16 12:31:27;;;;;;;2.25;1.83;;;21.50;99.90;;;;;;5004386;28;20200;-73
2021/08/16 12:33:56;;;;;;;1.85;1.48;;;21.40;99.90;;;;;;5010365;28;20255;-73
2021/08/16 12:36:25;;;;;;;1.95;1.38;;;21.40;99.90;;;;;;5011109;28;20627;-74
2021/08/16 12:39:00;;;;;;;1.30;1.20;;;21.40;99.90;;;;;;4997456;28;20204;-73
2021/08/16 12:41:29;;;;;;;2.40;1.95;;;21.20;99.90;;;;;;4991534;28;20205;-73
2021/08/16 12:43:57;;;;;;;1.30;1.10;;;21.40;99.90;;;;;;5007781;28;20205;-74
2021/08/16 12:46:33;;;;;;;3.60;1.90;;;21.40;99.90;;;;;;5010864;28;20683;-73
2021/08/16 12:49:00;;;;;;;4.03;1.95;;;21.40;99.90;;;;;;5007144;28;20279;-74
2021/08/16 12:51:27;;;;;;;3.08;1.80;;;21.40;99.90;;;;;;5008575;28;20197;-74